Time;durP1;ratioP1;P1;durP2;ratioP2;P2;SDS_P1;SDS_P2;PMS_P1;PMS_P2;Temp;Humidity;BMP_temperature;BMP_pressure;BME280_temperature;BME280_humidity;BME280_pressure;Samples;Min_cycle;Max_cycle;Signal;HPM_P1;HPM_P2
2022/05/27 00:01:30;;;;;;;0.40;0.20;;;13.60;99.90;;;;;;4947347;29;20737;-71
2022/05/27 00:03:59;;;;;;;0.40;0.20;;;13.50;99.90;;;;;;4926413;29;20453;-71
2022/05/27 00:06:26;;;;;;;0.40;0.20;;;13.50;99.90;;;;;;4925812;29;20403;-71
2022/05/27 00:08:52;;;;;;;0.40;0.20;;;13.50;99.90;;;;;;4936588;29;20395;-72
2022/05/27 00:11:18;;;;;;;0.40;0.30;;;13.50;99.90;;;;;;4935227;29;20455;-72
2022/05/27 00:13:44;;;;;;;0.40;0.20;;;13.40;99.90;;;;;;4922072;29;20407;-72
2022/05/27 00:16:11;;;;;;;0.40;0.20;;;13.50;99.90;;;;;;4935747;29;20748;-71
2022/05/27 00:18:37;;;;;;;0.40;0.20;;;13.50;99.90;;;;;;4936120;29;20486;-71
2022/05/27 00:21:04;;;;;;;0.40;0.40;;;13.40;99.90;;;;;;4935242;29;20503;-71
2022/05/27 00:23:30;;;;;;;0.40;0.20;;;13.40;99.90;;;;;;4933600;29;20415;-72
2022/05/27 00:25:56;;;;;;;0.40;0.20;;;13.60;99.90;;;;;;4934062;29;20423;-71
2022/05/27 00:28:21;;;;;;;0.40;0.20;;;13.60;99.90;;;;;;4935235;29;21076;-72
2022/05/27 00:30:47;;;;;;;0.40;0.20;;;13.40;99.90;;;;;;4936025;29;20867;-71
2022/05/27 00:33:13;;;;;;;0.40;0.20;;;13.50;99.90;;;;;;4935170;29;20439;-72
2022/05/27 00:35:39;;;;;;;0.40;0.30;;;13.50;99.90;;;;;;4921016;29;20423;-72
2022/05/27 00:38:06;;;;;;;0.40;0.20;;;13.40;99.90;;;;;;4935422;29;20461;-72
2022/05/27 00:40:41;;;;;;;0.40;0.20;;;13.30;99.90;;;;;;4917023;29;20544;-71
2022/05/27 00:43:06;;;;;;;0.40;0.20;;;13.20;99.90;;;;;;4924779;29;20462;-72
2022/05/27 00:45:34;;;;;;;0.40;0.20;;;13.20;99.90;;;;;;4935568;29;20856;-71
2022/05/27 00:48:03;;;;;;;0.40;0.30;;;13.20;99.90;;;;;;4950325;29;20395;-71
2022/05/27 00:50:37;;;;;;;0.40;0.20;;;13.10;99.90;;;;;;4948302;29;20880;-71
2022/05/27 00:53:06;;;;;;;0.40;0.30;;;13.10;99.90;;;;;;4924009;29;20444;-71
2022/05/27 00:55:36;;;;;;;0.40;0.20;;;12.90;99.90;;;;;;4919977;29;20747;-72
2022/05/27 00:58:13;;;;;;;0.40;0.20;;;12.90;99.90;;;;;;4925029;29;20474;-71
2022/05/27 01:00:39;;;;;;;0.40;0.20;;;13.00;99.90;;;;;;4935738;29;20403;-72
2022/05/27 01:03:07;;;;;;;0.40;0.40;;;12.80;99.90;;;;;;4934562;29;20399;-72
2022/05/27 01:05:33;;;;;;;0.40;0.30;;;12.90;99.90;;;;;;4935255;29;20888;-72
2022/05/27 01:08:03;;;;;;;0.60;0.60;;;12.80;99.90;;;;;;4935111;29;20400;-72
2022/05/27 01:10:37;;;;;;;0.40;0.20;;;12.70;99.90;;;;;;4915828;29;20414;-71
2022/05/27 01:13:25;;;;;;;0.40;0.20;;;12.90;99.90;;;;;;4934813;29;20407;-71
2022/05/27 01:16:13;;;;;;;0.40;0.25;;;12.90;99.90;;;;;;4935826;28;20441;-71
2022/05/27 01:22:15;;;;;;;0.40;0.20;;;12.80;99.90;;;;;;4935097;29;20439;-71
2022/05/27 01:24:41;;;;;;;0.40;0.20;;;12.80;99.90;;;;;;4934875;29;20764;-72
2022/05/27 01:27:29;;;;;;;0.40;0.20;;;12.80;99.90;;;;;;4934477;29;20487;-72
2022/05/27 01:30:25;;;;;;;0.40;0.20;;;12.80;99.90;;;;;;4934432;29;20491;-71
2022/05/27 01:33:32;;;;;;;0.40;0.20;;;12.80;99.90;;;;;;4934870;29;20447;-71
2022/05/27 01:36:11;;;;;;;0.40;0.20;;;12.70;99.90;;;;;;4881189;29;20891;-71
2022/05/27 01:38:45;;;;;;;0.40;0.30;;;12.70;99.90;;;;;;4914701;29;20451;-71
2022/05/27 01:41:29;;;;;;;0.40;0.20;;;12.50;99.90;;;;;;4933679;29;20407;-72
2022/05/27 01:44:14;;;;;;;0.40;0.20;;;12.60;99.90;;;;;;4934776;29;20404;-71
2022/05/27 01:46:45;;;;;;;0.40;0.20;;;12.50;99.90;;;;;;4934619;29;20490;-72
2022/05/27 01:49:20;;;;;;;0.40;0.30;;;12.50;99.90;;;;;;4916090;29;20419;-71
2022/05/27 01:52:15;;;;;;;0.40;0.25;;;12.40;99.90;;;;;;4930444;29;20426;-71
2022/05/27 01:54:53;;;;;;;0.40;0.40;;;12.40;99.90;;;;;;4915364;29;20784;-72
2022/05/27 01:57:36;;;;;;;0.40;0.20;;;12.50;99.90;;;;;;4929305;29;20423;-71
2022/05/27 02:00:06;;;;;;;0.40;0.20;;;12.60;99.90;;;;;;4933896;29;20495;-71
2022/05/27 02:02:34;;;;;;;0.40;0.20;;;12.70;99.90;;;;;;4934182;29;20392;-72
2022/05/27 02:05:08;;;;;;;0.40;0.20;;;12.70;99.90;;;;;;4917313;29;20488;-71
2022/05/27 02:07:47;;;;;;;0.40;0.20;;;12.70;99.90;;;;;;4922438;29;20416;-72
2022/05/27 02:10:18;;;;;;;0.40;0.20;;;12.50;99.90;;;;;;4930665;29;20452;-71
2022/05/27 02:12:50;;;;;;;0.40;0.20;;;12.50;99.90;;;;;;4915518;29;20417;-72
2022/05/27 02:15:24;;;;;;;0.40;0.30;;;12.40;99.90;;;;;;4932059;29;20431;-72
2022/05/27 02:17:56;;;;;;;0.40;0.20;;;12.40;99.90;;;;;;4934174;29;20404;-71
2022/05/27 02:20:32;;;;;;;0.40;0.30;;;12.40;99.90;;;;;;4933209;29;20411;-71
2022/05/27 02:23:18;;;;;;;0.40;0.20;;;12.50;99.90;;;;;;4934556;29;20483;-71
2022/05/27 02:25:46;;;;;;;0.40;0.20;;;12.50;99.90;;;;;;4915230;29;20874;-71
2022/05/27 02:28:23;;;;;;;0.40;0.20;;;12.50;99.90;;;;;;4926856;29;20408;-71
2022/05/27 02:30:54;;;;;;;1.50;0.80;;;12.30;99.90;;;;;;4933694;29;20491;-71
2022/05/27 02:36:16;;;;;;;0.40;0.40;;;12.20;99.90;;;;;;4932968;29;20430;-72
2022/05/27 02:38:42;;;;;;;0.40;0.30;;;12.10;99.90;;;;;;4932758;29;20411;-71
2022/05/27 02:41:31;;;;;;;0.40;0.20;;;12.10;99.90;;;;;;4933050;29;20410;-71
2022/05/27 02:44:29;;;;;;;0.40;0.20;;;12.30;99.90;;;;;;4913750;29;20528;-71
2022/05/27 02:47:14;;;;;;;0.40;0.30;;;12.20;99.90;;;;;;4900457;29;20423;-71
2022/05/27 02:49:48;;;;;;;0.40;0.20;;;12.10;99.90;;;;;;4932873;29;20408;-71
2022/05/27 02:52:32;;;;;;;0.40;0.20;;;12.20;99.90;;;;;;4931658;29;20431;-71
2022/05/27 02:55:07;;;;;;;0.40;0.30;;;12.10;99.90;;;;;;4933377;29;20975;-71
2022/05/27 02:57:40;;;;;;;0.40;0.20;;;12.10;99.90;;;;;;4917219;29;20764;-71
2022/05/27 03:00:13;;;;;;;0.40;0.20;;;12.10;99.90;;;;;;4933228;29;20403;-71
2022/05/27 03:02:39;;;;;;;0.40;0.30;;;12.00;99.90;;;;;;4920915;29;20434;-71
2022/05/27 03:05:05;;;;;;;0.40;0.20;;;12.10;99.90;;;;;;4933659;29;20478;-71
2022/05/27 03:07:37;;;;;;;0.40;0.20;;;12.30;99.90;;;;;;4932448;29;20404;-71
2022/05/27 03:10:20;;;;;;;3.60;0.90;;;12.00;99.90;;;;;;4917976;29;20805;-71
2022/05/27 03:13:27;;;;;;;0.40;0.30;;;12.00;99.90;;;;;;4914719;29;20821;-71
2022/05/27 03:15:56;;;;;;;0.40;0.28;;;12.00;99.90;;;;;;4933465;29;20437;-71
2022/05/27 03:18:40;;;;;;;0.40;0.20;;;11.70;99.90;;;;;;4932360;29;20489;-71
2022/05/27 03:21:28;;;;;;;0.40;0.20;;;11.70;99.90;;;;;;4931896;29;20498;-71
2022/05/27 03:24:16;;;;;;;0.40;0.20;;;11.60;99.90;;;;;;4932028;29;20427;-71
2022/05/27 03:27:03;;;;;;;0.40;0.30;;;11.70;99.90;;;;;;4923042;29;20409;-71
2022/05/27 03:29:38;;;;;;;0.40;0.20;;;11.80;99.90;;;;;;4946929;29;20869;-71
2022/05/27 03:32:12;;;;;;;0.50;0.50;;;11.80;99.90;;;;;;4932616;29;20415;-71
2022/05/27 03:34:53;;;;;;;0.40;0.20;;;11.80;99.90;;;;;;4926507;29;21076;-71
2022/05/27 03:37:35;;;;;;;0.40;0.20;;;11.80;99.90;;;;;;4915123;29;20495;-71
2022/05/27 03:40:25;;;;;;;0.40;0.20;;;12.00;99.90;;;;;;4934217;29;20404;-71
2022/05/27 03:42:52;;;;;;;0.40;0.30;;;12.00;99.90;;;;;;4934524;29;20416;-71
2022/05/27 03:45:20;;;;;;;0.60;0.60;;;12.00;99.90;;;;;;4936152;29;20462;-72
2022/05/27 03:47:46;;;;;;;0.40;0.20;;;12.00;99.90;;;;;;4936327;29;20938;-71
2022/05/27 03:50:32;;;;;;;0.40;0.20;;;12.10;99.90;;;;;;4916796;29;20758;-71
2022/05/27 03:52:58;;;;;;;0.40;0.30;;;12.00;99.90;;;;;;4933621;29;20431;-71
2022/05/27 03:55:26;;;;;;;0.40;0.20;;;11.80;99.90;;;;;;4935728;29;20824;-71
2022/05/27 03:57:53;;;;;;;0.40;0.20;;;11.90;99.90;;;;;;4936830;29;20407;-71
2022/05/27 04:00:19;;;;;;;0.40;0.20;;;11.80;99.90;;;;;;4935792;29;20844;-72
2022/05/27 04:02:45;;;;;;;0.40;0.20;;;11.70;99.90;;;;;;4935698;29;20487;-71
2022/05/27 04:05:16;;;;;;;0.40;0.20;;;11.60;99.90;;;;;;4920179;29;20407;-73
2022/05/27 04:07:43;;;;;;;0.40;0.30;;;11.60;99.90;;;;;;4935698;29;20424;-71
2022/05/27 04:10:09;;;;;;;0.40;0.20;;;11.80;99.90;;;;;;4936576;29;20396;-71
2022/05/27 04:12:36;;;;;;;0.40;0.20;;;11.80;99.90;;;;;;4935602;29;20651;-70
2022/05/27 04:15:03;;;;;;;0.40;0.20;;;12.00;99.90;;;;;;4936495;29;20872;-71
2022/05/27 04:17:31;;;;;;;0.40;0.20;;;11.90;99.90;;;;;;4929318;29;20400;-71
2022/05/27 04:20:12;;;;;;;0.40;0.20;;;12.00;99.90;;;;;;4922495;29;20409;-70
2022/05/27 04:22:39;;;;;;;0.40;0.30;;;12.10;99.90;;;;;;4926668;29;20752;-71
2022/05/27 04:25:06;;;;;;;0.40;0.30;;;12.00;99.90;;;;;;4945014;29;20872;-71
2022/05/27 04:27:32;;;;;;;0.40;0.20;;;11.90;99.90;;;;;;4922706;29;20417;-71
2022/05/27 04:29:58;;;;;;;0.40;0.20;;;11.90;99.90;;;;;;4923587;29;20488;-70
2022/05/27 04:32:27;;;;;;;0.40;0.30;;;11.90;99.90;;;;;;4925245;29;20496;-70
2022/05/27 04:34:54;;;;;;;0.40;0.20;;;11.80;99.90;;;;;;4923986;29;20414;-71
2022/05/27 04:37:21;;;;;;;0.40;0.30;;;12.00;99.90;;;;;;4920106;29;20754;-71
2022/05/27 04:39:47;;;;;;;0.40;0.40;;;12.00;99.90;;;;;;4922019;29;20442;-71
2022/05/27 04:42:13;;;;;;;0.40;0.30;;;12.10;99.90;;;;;;4927988;29;20413;-71
2022/05/27 04:44:39;;;;;;;0.40;0.20;;;12.10;99.90;;;;;;4924002;29;21026;-71
2022/05/27 04:47:07;;;;;;;0.40;0.30;;;12.10;99.90;;;;;;4923541;29;20409;-70
2022/05/27 04:49:53;;;;;;;0.40;0.20;;;12.20;99.90;;;;;;4924858;29;20476;-71
2022/05/27 04:52:28;;;;;;;0.40;0.20;;;12.20;99.90;;;;;;4925971;29;20507;-71
2022/05/27 04:54:55;;;;;;;0.40;0.20;;;12.20;99.90;;;;;;4926155;29;20420;-71
2022/05/27 04:57:32;;;;;;;0.40;0.20;;;12.50;99.90;;;;;;4923831;29;20949;-71
2022/05/27 04:59:58;;;;;;;0.40;0.20;;;12.60;99.90;;;;;;4925370;29;20454;-72
2022/05/27 05:02:24;;;;;;;0.40;0.20;;;12.60;99.90;;;;;;4920765;29;20436;-72
2022/05/27 05:04:51;;;;;;;0.40;0.20;;;12.60;99.90;;;;;;4925776;29;20437;-73
2022/05/27 05:07:20;;;;;;;0.40;0.20;;;12.70;99.90;;;;;;4929000;29;20450;-73
2022/05/27 05:09:46;;;;;;;0.40;0.40;;;12.60;99.90;;;;;;4934956;29;20410;-73
2022/05/27 05:12:13;;;;;;;0.40;0.20;;;12.80;99.90;;;;;;4930449;29;20421;-72
2022/05/27 05:14:41;;;;;;;0.40;0.20;;;12.80;99.90;;;;;;4921112;29;20487;-73
2022/05/27 05:17:07;;;;;;;0.40;0.20;;;13.00;99.90;;;;;;4934383;29;20447;-72
2022/05/27 05:19:34;;;;;;;0.47;0.47;;;13.10;99.90;;;;;;4922671;29;20404;-70
2022/05/27 05:22:00;;;;;;;0.40;0.20;;;13.20;99.90;;;;;;4921131;29;20966;-70
2022/05/27 05:24:25;;;;;;;0.40;0.20;;;13.40;99.90;;;;;;4930407;29;20431;-70
2022/05/27 05:26:51;;;;;;;0.40;0.20;;;13.20;99.90;;;;;;4931164;29;20399;-72
2022/05/27 05:29:17;;;;;;;0.80;0.80;;;13.20;99.90;;;;;;4925233;29;20407;-70
2022/05/27 05:31:43;;;;;;;0.40;0.40;;;13.20;99.90;;;;;;4920422;29;20437;-72
2022/05/27 05:34:08;;;;;;;0.40;0.20;;;13.20;99.90;;;;;;4930724;29;20405;-72
2022/05/27 05:36:34;;;;;;;0.40;0.20;;;13.20;99.90;;;;;;4922765;29;20778;-72
2022/05/27 05:39:02;;;;;;;0.40;0.20;;;13.30;99.90;;;;;;4932914;29;20798;-71
2022/05/27 05:41:32;;;;;;;0.40;0.22;;;13.30;99.90;;;;;;4933853;29;20404;-71
2022/05/27 05:43:58;;;;;;;0.40;0.20;;;13.40;99.90;;;;;;4932767;29;20434;-71
2022/05/27 05:46:25;;;;;;;0.40;0.20;;;13.50;99.90;;;;;;4930117;29;20544;-71
2022/05/27 05:48:51;;;;;;;0.40;0.30;;;13.60;99.90;;;;;;4931165;29;20786;-71
2022/05/27 05:51:17;;;;;;;0.40;0.20;;;13.60;99.90;;;;;;4932999;29;20427;-72
2022/05/27 05:53:43;;;;;;;0.40;0.20;;;13.70;99.90;;;;;;4933351;29;20663;-72
2022/05/27 05:56:09;;;;;;;0.40;0.30;;;13.80;99.90;;;;;;4926875;29;20547;-71
2022/05/27 05:58:35;;;;;;;0.40;0.20;;;13.90;99.90;;;;;;4929320;29;20783;-71
2022/05/27 06:01:01;;;;;;;0.40;0.20;;;13.90;99.90;;;;;;4933193;29;20883;-71
2022/05/27 06:03:27;;;;;;;0.40;0.20;;;13.90;99.90;;;;;;4919329;29;20397;-71
2022/05/27 06:05:53;;;;;;;0.40;0.20;;;14.00;99.90;;;;;;4917969;29;20389;-71
2022/05/27 06:08:19;;;;;;;0.40;0.20;;;14.20;99.90;;;;;;4934122;29;20918;-71
2022/05/27 06:10:45;;;;;;;0.40;0.20;;;14.30;99.90;;;;;;4933987;29;20420;-71
2022/05/27 06:13:12;;;;;;;0.40;0.20;;;14.30;99.90;;;;;;4931256;29;20426;-71
2022/05/27 06:15:38;;;;;;;0.40;0.40;;;14.40;99.90;;;;;;4933217;29;20419;-72
2022/05/27 06:18:05;;;;;;;0.50;0.50;;;14.40;99.90;;;;;;4932692;29;20407;-71
2022/05/27 06:20:32;;;;;;;0.40;0.20;;;14.50;99.90;;;;;;4921881;29;20408;-72
2022/05/27 06:22:57;;;;;;;0.40;0.20;;;14.50;99.90;;;;;;4920983;29;20788;-72
2022/05/27 06:25:24;;;;;;;0.40;0.20;;;14.60;99.90;;;;;;4931354;29;20447;-71
2022/05/27 06:34:23;;;;;;;1.00;0.90;;;14.70;99.90;;;;;;4933712;29;20431;-71
2022/05/27 06:36:05;;;;;;;0.40;0.20;;;15.20;99.90;;;;;;4922797;29;20517;-70
2022/05/27 06:38:30;;;;;;;0.40;0.30;;;15.60;99.90;;;;;;4904012;29;20869;-71
2022/05/27 06:40:56;;;;;;;0.40;0.30;;;15.80;99.90;;;;;;4933141;29;20419;-71
2022/05/27 06:43:22;;;;;;;0.40;0.20;;;16.00;99.90;;;;;;4929889;29;20408;-72
2022/05/27 06:45:48;;;;;;;0.40;0.30;;;16.00;99.90;;;;;;4933243;29;20482;-72
2022/05/27 06:48:14;;;;;;;0.40;0.20;;;16.20;99.90;;;;;;4931091;29;20403;-71
2022/05/27 06:50:40;;;;;;;0.40;0.20;;;16.40;99.90;;;;;;4927544;29;20405;-71
2022/05/27 06:53:05;;;;;;;0.40;0.20;;;16.60;99.90;;;;;;4930026;29;20796;-71
2022/05/27 06:55:31;;;;;;;0.40;0.30;;;16.70;99.90;;;;;;4918405;29;20491;-71
2022/05/27 06:57:57;;;;;;;0.40;0.30;;;16.80;99.90;;;;;;4920789;29;20866;-71
2022/05/27 07:00:23;;;;;;;0.40;0.30;;;16.80;99.90;;;;;;4916905;29;20487;-71
2022/05/27 07:02:49;;;;;;;0.40;0.20;;;17.00;99.90;;;;;;4902281;29;20413;-71
2022/05/27 07:05:15;;;;;;;0.40;0.30;;;17.00;99.90;;;;;;4929242;29;20431;-71
2022/05/27 07:07:41;;;;;;;0.40;0.20;;;17.20;99.90;;;;;;4920880;29;20482;-71
2022/05/27 07:10:07;;;;;;;0.40;0.20;;;17.20;99.90;;;;;;4926299;29;20401;-71
2022/05/27 07:12:33;;;;;;;0.40;0.20;;;17.40;99.90;;;;;;4925575;29;20424;-72
2022/05/27 07:14:59;;;;;;;0.40;0.20;;;17.30;99.90;;;;;;4926648;29;20411;-72
2022/05/27 07:17:24;;;;;;;0.40;0.20;;;17.30;99.90;;;;;;4920677;29;20410;-71
2022/05/27 07:19:50;;;;;;;0.40;0.20;;;17.50;99.90;;;;;;4926821;29;20407;-72
2022/05/27 07:22:16;;;;;;;0.40;0.20;;;17.50;99.90;;;;;;4925974;29;20400;-72
2022/05/27 07:24:42;;;;;;;0.40;0.20;;;17.50;99.90;;;;;;4924831;29;20435;-72
2022/05/27 07:27:08;;;;;;;0.40;0.20;;;17.50;99.90;;;;;;4933255;29;20399;-72
2022/05/27 07:29:34;;;;;;;0.40;0.30;;;17.40;99.90;;;;;;4930946;29;20920;-72
2022/05/27 07:32:01;;;;;;;0.40;0.40;;;17.30;99.90;;;;;;4932879;29;20421;-72
2022/05/27 07:34:27;;;;;;;0.40;0.30;;;17.30;99.90;;;;;;4929297;29;20412;-72
2022/05/27 07:36:53;;;;;;;0.40;0.20;;;17.30;99.90;;;;;;4934548;29;20400;-72
2022/05/27 07:39:19;;;;;;;0.40;0.20;;;17.50;99.90;;;;;;4931351;29;20404;-72
2022/05/27 07:41:44;;;;;;;0.40;0.20;;;17.50;99.90;;;;;;4929407;29;20443;-71
2022/05/27 07:44:10;;;;;;;0.40;0.20;;;17.50;99.90;;;;;;4924950;29;20428;-72
2022/05/27 07:46:37;;;;;;;0.40;0.30;;;17.50;99.90;;;;;;4928192;29;20490;-71
2022/05/27 07:49:04;;;;;;;0.40;0.20;;;17.60;99.90;;;;;;4933267;29;20395;-72
2022/05/27 07:51:31;;;;;;;0.40;0.25;;;17.50;99.90;;;;;;4936195;29;20449;-72
2022/05/27 07:53:56;;;;;;;0.40;0.20;;;17.60;99.90;;;;;;4952539;29;20492;-71
2022/05/27 07:56:22;;;;;;;0.40;0.20;;;17.70;99.90;;;;;;4952424;29;20461;-72
2022/05/27 07:58:48;;;;;;;0.40;0.20;;;17.60;99.90;;;;;;4938287;29;20428;-72
2022/05/27 08:01:14;;;;;;;0.50;0.50;;;17.60;99.90;;;;;;4933206;29;20403;-72
2022/05/27 08:03:41;;;;;;;0.40;0.20;;;17.60;99.90;;;;;;4932732;29;20394;-72
2022/05/27 08:06:08;;;;;;;0.40;0.30;;;17.70;99.90;;;;;;4924656;29;20393;-72
2022/05/27 08:08:33;;;;;;;0.40;0.20;;;17.90;99.90;;;;;;4913466;29;20421;-72
2022/05/27 08:10:59;;;;;;;0.40;0.20;;;17.90;99.90;;;;;;4925421;29;20399;-72
2022/05/27 08:13:26;;;;;;;0.40;0.20;;;18.00;99.90;;;;;;4932137;29;20411;-72
2022/05/27 08:15:52;;;;;;;0.40;0.30;;;18.00;99.90;;;;;;4915899;29;20609;-72
2022/05/27 08:18:20;;;;;;;0.40;0.20;;;17.90;99.90;;;;;;4925310;29;20401;-72
2022/05/27 08:20:46;;;;;;;1.00;1.00;;;17.70;99.90;;;;;;4924164;29;20486;-72
2022/05/27 08:23:11;;;;;;;0.40;0.30;;;17.90;99.90;;;;;;4924138;29;20529;-71
2022/05/27 08:25:38;;;;;;;0.40;0.20;;;17.90;99.90;;;;;;4915575;29;20425;-72
2022/05/27 08:28:05;;;;;;;0.40;0.20;;;18.00;99.90;;;;;;4925027;29;20409;-70
2022/05/27 08:30:34;;;;;;;0.40;0.20;;;17.80;99.90;;;;;;4920622;29;20405;-72
2022/05/27 08:33:00;;;;;;;0.40;0.30;;;17.90;99.90;;;;;;4920260;29;20534;-71
2022/05/27 08:38:20;;;;;;;0.40;0.20;;;18.10;99.90;;;;;;4925250;29;20510;-69
2022/05/27 08:41:11;;;;;;;0.40;0.20;;;17.90;99.90;;;;;;4933674;29;20400;-70
2022/05/27 08:44:13;;;;;;;0.40;0.30;;;17.90;99.90;;;;;;4935369;29;20451;-70
2022/05/27 08:46:56;;;;;;;0.40;0.20;;;17.90;99.90;;;;;;4916481;29;20409;-69
2022/05/27 08:49:34;;;;;;;0.40;0.20;;;18.00;99.90;;;;;;4928833;29;20439;-68
2022/05/27 08:52:19;;;;;;;0.40;0.30;;;18.00;99.90;;;;;;4935039;29;20426;-69
2022/05/27 08:54:54;;;;;;;0.40;0.20;;;17.90;99.90;;;;;;4935278;29;20408;-69
2022/05/27 09:00:04;;;;;;;0.40;0.20;;;18.00;99.90;;;;;;4935371;29;20406;-69
2022/05/27 09:03:01;;;;;;;0.40;0.20;;;17.90;99.90;;;;;;4935417;29;20773;-69
2022/05/27 09:05:34;;;;;;;0.50;0.50;;;18.00;99.90;;;;;;4928972;29;20792;-72
2022/05/27 09:08:19;;;;;;;0.40;0.20;;;18.10;99.90;;;;;;4932967;29;20403;-68
2022/05/27 09:10:59;;;;;;;0.40;0.20;;;18.10;99.90;;;;;;4916104;29;20425;-70
2022/05/27 09:13:40;;;;;;;0.40;0.20;;;18.00;99.90;;;;;;4927279;29;20416;-71
2022/05/27 09:16:32;;;;;;;0.40;0.30;;;18.10;99.90;;;;;;4935687;29;20399;-69
2022/05/27 09:19:25;;;;;;;0.40;0.20;;;18.30;99.90;;;;;;4935245;29;20501;-70
2022/05/27 09:21:56;;;;;;;0.40;0.20;;;18.50;99.90;;;;;;4934585;29;20438;-72
2022/05/27 09:25:03;;;;;;;0.40;0.20;;;18.80;99.90;;;;;;4934921;29;20431;-72
2022/05/27 09:27:42;;;;;;;0.40;0.30;;;18.90;99.90;;;;;;4902197;29;20768;-71
2022/05/27 09:30:11;;;;;;;0.40;0.20;;;19.00;99.90;;;;;;4935518;29;20415;-71
2022/05/27 09:33:06;;;;;;;0.40;0.20;;;18.80;99.90;;;;;;4934591;29;20426;-72
2022/05/27 09:35:48;;;;;;;0.40;0.20;;;19.00;99.90;;;;;;4930736;29;20411;-72
2022/05/27 09:38:27;;;;;;;0.40;0.30;;;19.10;99.90;;;;;;4934222;29;20396;-72
2022/05/27 09:40:57;;;;;;;0.40;0.20;;;19.20;99.90;;;;;;4917611;29;20404;-70
2022/05/27 09:43:40;;;;;;;0.40;0.20;;;19.30;99.90;;;;;;4930161;29;20435;-71
2022/05/27 09:46:14;;;;;;;0.40;0.20;;;19.30;99.90;;;;;;4927640;29;20439;-72
2022/05/27 09:48:40;;;;;;;0.40;0.20;;;19.20;99.90;;;;;;4935131;29;20465;-72
2022/05/27 09:51:09;;;;;;;0.40;0.20;;;19.10;99.90;;;;;;4929084;29;21913;-72
2022/05/27 09:53:50;;;;;;;0.40;0.20;;;19.30;99.90;;;;;;4926449;29;20435;-72
2022/05/27 09:56:31;;;;;;;0.40;0.30;;;19.20;99.90;;;;;;4923707;29;20983;-70
2022/05/27 09:59:19;;;;;;;0.40;0.20;;;19.40;99.90;;;;;;4935414;29;20407;-72
2022/05/27 10:01:45;;;;;;;0.40;0.20;;;19.10;99.90;;;;;;4925904;29;20798;-72
2022/05/27 10:04:16;;;;;;;0.40;0.20;;;19.20;99.90;;;;;;4927563;29;20568;-72
2022/05/27 10:06:43;;;;;;;0.40;0.20;;;19.10;99.90;;;;;;4927337;29;20757;-72
2022/05/27 10:09:23;;;;;;;0.40;0.20;;;19.00;99.90;;;;;;4929945;29;20439;-71
2022/05/27 10:11:52;;;;;;;0.40;0.30;;;19.20;99.90;;;;;;4926151;29;20770;-71
2022/05/27 10:14:28;;;;;;;0.40;0.20;;;19.20;99.90;;;;;;4926665;29;20408;-72
2022/05/27 10:17:13;;;;;;;0.40;0.20;;;19.20;99.90;;;;;;4922131;29;20890;-72
2022/05/27 10:19:44;;;;;;;0.40;0.30;;;19.20;99.90;;;;;;4925776;29;20526;-73
2022/05/27 10:22:30;;;;;;;0.40;0.20;;;19.20;99.90;;;;;;4921792;29;20405;-73
2022/05/27 10:25:04;;;;;;;0.40;0.30;;;19.10;99.90;;;;;;4923152;29;20442;-72
2022/05/27 10:27:38;;;;;;;0.40;0.20;;;19.30;99.90;;;;;;4925358;29;20412;-72
2022/05/27 10:30:07;;;;;;;0.40;0.20;;;19.20;99.90;;;;;;4926367;29;20768;-70
2022/05/27 10:32:37;;;;;;;0.40;0.30;;;19.00;99.90;;;;;;4925234;29;20417;-71
2022/05/27 10:35:27;;;;;;;0.40;0.20;;;19.00;99.90;;;;;;4926252;29;20405;-71
2022/05/27 10:38:21;;;;;;;0.40;0.20;;;19.10;99.90;;;;;;4915329;29;20401;-71
2022/05/27 10:41:01;;;;;;;0.40;0.20;;;19.30;99.90;;;;;;4922894;29;20403;-72
2022/05/27 10:43:44;;;;;;;0.40;0.20;;;19.30;99.90;;;;;;4925760;29;20419;-72
2022/05/27 10:46:19;;;;;;;0.40;0.20;;;19.20;99.90;;;;;;4923740;29;20443;-71
2022/05/27 10:49:01;;;;;;;0.40;0.30;;;19.30;99.90;;;;;;4924807;29;20410;-72
2022/05/27 10:51:41;;;;;;;0.40;0.20;;;19.60;99.90;;;;;;4922789;29;20970;-71
2022/05/27 10:54:31;;;;;;;0.40;0.30;;;19.50;99.80;;;;;;4922238;29;20417;-73
2022/05/27 11:03:04;;;;;;;0.40;0.20;;;20.00;98.80;;;;;;4922394;29;20527;-69
2022/05/27 11:05:57;;;;;;;0.40;0.30;;;19.90;98.20;;;;;;4924663;29;20460;-70
2022/05/27 11:08:25;;;;;;;0.40;0.20;;;20.10;98.10;;;;;;4923434;29;20409;-70
2022/05/27 11:11:18;;;;;;;0.40;0.30;;;20.10;97.90;;;;;;4921107;29;20404;-70
2022/05/27 11:17:02;;;;;;;0.40;0.20;;;20.20;96.60;;;;;;4921672;29;20381;-71
2022/05/27 11:20:05;;;;;;;0.40;0.30;;;20.80;95.40;;;;;;4923563;29;20440;-70
2022/05/27 11:22:38;;;;;;;0.40;0.20;;;21.10;94.70;;;;;;4922847;29;20403;-71
2022/05/27 11:25:27;;;;;;;0.40;0.20;;;20.80;93.60;;;;;;4923366;29;20508;-71
2022/05/27 11:28:14;;;;;;;0.40;0.30;;;20.50;94.90;;;;;;4921286;29;20408;-70
2022/05/27 11:31:25;;;;;;;0.40;0.20;;;20.30;95.20;;;;;;4921339;29;20419;-71
2022/05/27 11:34:15;;;;;;;0.40;0.20;;;20.40;95.10;;;;;;4924312;29;20517;-70
2022/05/27 11:37:09;;;;;;;0.40;0.20;;;20.40;95.10;;;;;;4923137;29;20495;-71
2022/05/27 11:40:00;;;;;;;0.40;0.30;;;20.70;96.30;;;;;;4923606;29;20868;-71
2022/05/27 11:42:34;;;;;;;0.40;0.30;;;21.60;95.80;;;;;;4917500;29;20897;-71
2022/05/27 11:45:27;;;;;;;0.40;0.20;;;21.40;93.90;;;;;;4924650;29;20953;-69
2022/05/27 11:48:01;;;;;;;0.40;0.30;;;20.60;96.10;;;;;;4926745;29;20976;-71
2022/05/27 11:50:42;;;;;;;0.40;0.20;;;21.50;91.90;;;;;;4928528;29;20919;-70
2022/05/27 11:53:36;;;;;;;0.40;0.30;;;21.20;94.40;;;;;;4925458;29;20423;-71
2022/05/27 11:56:15;;;;;;;0.40;0.20;;;21.10;96.00;;;;;;4932276;29;20399;-71
2022/05/27 11:58:58;;;;;;;0.40;0.20;;;21.00;96.40;;;;;;4925260;29;20400;-71
2022/05/27 12:01:49;;;;;;;0.40;0.30;;;20.70;97.90;;;;;;4935153;29;20392;-70
2022/05/27 12:04:52;;;;;;;0.40;0.20;;;20.40;97.30;;;;;;4937056;29;20400;-68
2022/05/27 12:07:33;;;;;;;0.40;0.30;;;20.70;96.90;;;;;;4936491;29;20454;-71
2022/05/27 12:10:27;;;;;;;0.40;0.30;;;20.70;97.70;;;;;;4924465;29;20426;-70
2022/05/27 12:13:06;;;;;;;0.40;0.20;;;20.90;96.90;;;;;;4928440;29;20427;-71
2022/05/27 12:15:44;;;;;;;0.40;0.30;;;20.90;98.00;;;;;;4936684;29;20412;-70
2022/05/27 12:18:20;;;;;;;0.40;0.25;;;21.10;96.20;;;;;;4936504;29;20411;-71
2022/05/27 12:20:47;;;;;;;0.40;0.20;;;21.00;96.00;;;;;;4935354;29;20407;-71
2022/05/27 12:23:13;;;;;;;0.40;0.20;;;20.80;96.10;;;;;;4936405;29;20403;-69
2022/05/27 12:25:47;;;;;;;0.40;0.30;;;20.50;95.80;;;;;;4935857;29;20939;-71
2022/05/27 12:28:19;;;;;;;0.40;0.20;;;20.80;94.60;;;;;;4935922;29;20411;-70
2022/05/27 12:30:46;;;;;;;0.40;0.30;;;20.70;94.00;;;;;;4935397;29;20408;-71
2022/05/27 12:33:16;;;;;;;0.40;0.20;;;20.80;93.60;;;;;;4936200;29;20427;-71
2022/05/27 12:36:00;;;;;;;0.40;0.20;;;20.90;93.70;;;;;;4935111;29;20511;-70
2022/05/27 12:38:35;;;;;;;0.40;0.20;;;21.00;92.90;;;;;;4936184;29;20944;-71
2022/05/27 12:41:04;;;;;;;0.40;0.20;;;20.90;93.80;;;;;;4933985;29;20825;-70
2022/05/27 12:43:31;;;;;;;0.40;0.20;;;20.90;92.50;;;;;;4934550;29;20447;-71
2022/05/27 12:46:00;;;;;;;0.40;0.30;;;21.00;91.80;;;;;;4933021;29;20450;-69
2022/05/27 12:48:36;;;;;;;0.40;0.20;;;20.90;92.00;;;;;;4935792;29;20439;-70
2022/05/27 12:51:08;;;;;;;0.40;0.23;;;20.80;91.50;;;;;;4941830;29;20452;-69
2022/05/27 12:53:44;;;;;;;0.40;0.30;;;20.90;91.40;;;;;;4950021;29;20431;-69
2022/05/27 13:02:14;;;;;;;0.40;0.30;;;20.70;92.00;;;;;;4936728;29;20407;-71
2022/05/27 13:04:55;;;;;;;0.40;0.30;;;20.80;94.30;;;;;;4930206;29;20411;-71
2022/05/27 13:07:33;;;;;;;0.40;0.30;;;20.60;92.50;;;;;;4935707;29;20407;-72
2022/05/27 13:10:17;;;;;;;0.40;0.30;;;20.80;92.80;;;;;;4936608;29;20479;-72
2022/05/27 13:12:46;;;;;;;0.40;0.30;;;21.00;91.30;;;;;;4934405;28;20454;-71
2022/05/27 13:15:42;;;;;;;0.40;0.20;;;21.10;90.60;;;;;;4948528;29;20770;-72
2022/05/27 13:18:22;;;;;;;0.40;0.30;;;21.10;92.60;;;;;;4939870;29;20481;-71
2022/05/27 13:20:53;;;;;;;0.40;0.20;;;21.10;92.10;;;;;;4942843;29;20398;-71
2022/05/27 13:23:25;;;;;;;0.40;0.30;;;21.00;91.00;;;;;;4949964;29;20433;-71
2022/05/27 13:26:16;;;;;;;0.40;0.30;;;20.60;91.80;;;;;;4936629;29;20430;-72
2022/05/27 13:28:58;;;;;;;0.40;0.20;;;20.30;92.60;;;;;;4939900;29;20412;-72
2022/05/27 13:31:31;;;;;;;0.40;0.20;;;20.10;92.80;;;;;;4931755;29;20415;-70
2022/05/27 13:33:59;;;;;;;0.40;0.20;;;20.10;93.10;;;;;;4933137;29;20732;-70
2022/05/27 13:36:27;;;;;;;0.40;0.20;;;20.20;93.40;;;;;;4943530;29;20406;-70
2022/05/27 13:38:58;;;;;;;0.60;0.60;;;20.10;93.70;;;;;;4935850;29;20490;-71
2022/05/27 13:41:27;;;;;;;0.40;0.20;;;20.10;94.60;;;;;;4933365;29;20737;-71
2022/05/27 13:43:54;;;;;;;0.40;0.20;;;20.00;95.80;;;;;;4933545;29;20469;-70
2022/05/27 13:46:28;;;;;;;0.40;0.20;;;20.00;95.30;;;;;;4933976;29;20404;-72
2022/05/27 13:49:29;;;;;;;0.40;0.20;;;20.00;95.60;;;;;;4932963;29;20403;-71
2022/05/27 13:51:54;;;;;;;0.40;0.20;;;19.90;96.00;;;;;;4932917;29;20772;-74
2022/05/27 13:54:30;;;;;;;0.50;0.50;;;19.90;95.40;;;;;;4933650;29;20435;-71